Time;durP1;ratioP1;P1;durP2;ratioP2;P2;SDS_P1;SDS_P2;PMS_P1;PMS_P2;Temp;Humidity;BMP_temperature;BMP_pressure;BME280_temperature;BME280_humidity;BME280_pressure;Samples;Min_cycle;Max_cycle;Signal;HPM_P1;HPM_P2
2022/07/30 00:00:10;;;;;;;;;;;;;;;25.07;34.96;100776.56;5095480;28;20377;-67
2022/07/30 00:02:36;;;;;;;;;;;;;;;25.08;35.21;100774.66;5095424;28;19916;-67
2022/07/30 00:05:01;;;;;;;;;;;;;;;25.08;35.08;100771.94;5098473;28;19920;-67
2022/07/30 00:07:27;;;;;;;;;;;;;;;25.07;35.30;100776.56;5097855;28;19969;-67
2022/07/30 00:09:52;;;;;;;;;;;;;;;25.03;35.16;100771.94;5095107;28;19930;-67
2022/07/30 00:12:17;;;;;;;;;;;;;;;25.06;35.28;100774.94;5094977;28;19916;-67
2022/07/30 00:14:43;;;;;;;;;;;;;;;25.07;35.10;100773.00;5094555;28;20051;-67
2022/07/30 00:17:08;;;;;;;;;;;;;;;25.07;35.07;100773.81;5094598;28;19959;-67
2022/07/30 00:19:33;;;;;;;;;;;;;;;25.08;35.33;100771.94;5094744;28;19916;-67
2022/07/30 00:21:59;;;;;;;;;;;;;;;25.08;35.16;100775.47;5094814;28;20411;-68
2022/07/30 00:24:24;;;;;;;;;;;;;;;25.09;35.24;100759.88;5094883;28;19933;-67
2022/07/30 00:26:49;;;;;;;;;;;;;;;25.09;35.34;100768.09;5084792;28;19927;-67
2022/07/30 00:29:14;;;;;;;;;;;;;;;25.08;35.26;100761.00;5074416;28;19917;-67
2022/07/30 00:31:40;;;;;;;;;;;;;;;25.10;35.20;100758.81;5074178;28;20294;-67
2022/07/30 00:34:05;;;;;;;;;;;;;;;25.07;35.27;100765.63;5074325;28;20270;-67
2022/07/30 00:36:30;;;;;;;;;;;;;;;25.07;35.29;100759.34;5074274;28;19920;-67
2022/07/30 00:38:55;;;;;;;;;;;;;;;25.10;34.98;100759.59;5074452;28;19916;-67
2022/07/30 00:41:21;;;;;;;;;;;;;;;25.09;35.04;100760.72;5074135;28;20370;-67
2022/07/30 00:43:46;;;;;;;;;;;;;;;25.07;35.39;100760.16;5074358;28;19944;-67
2022/07/30 00:46:13;;;;;;;;;;;;;;;25.08;35.11;100756.34;5074786;28;20289;-67
2022/07/30 00:48:38;;;;;;;;;;;;;;;25.08;35.38;100758.25;5088100;28;19916;-67
2022/07/30 00:51:04;;;;;;;;;;;;;;;25.06;35.37;100754.97;5084291;28;19924;-67
2022/07/30 00:53:29;;;;;;;;;;;;;;;25.06;35.31;100757.69;5084058;28;19923;-67
2022/07/30 00:55:54;;;;;;;;;;;;;;;25.07;35.21;100762.06;5084641;28;19917;-67
2022/07/30 00:58:19;;;;;;;;;;;;;;;25.05;35.27;100756.88;5084537;28;20415;-66
2022/07/30 01:00:45;;;;;;;;;;;;;;;25.07;35.36;100745.66;5083079;28;19924;-67
2022/07/30 01:03:10;;;;;;;;;;;;;;;25.07;35.26;100753.88;5077844;28;19961;-67
2022/07/30 01:05:35;;;;;;;;;;;;;;;25.07;35.30;100746.47;5074041;28;19929;-67
2022/07/30 01:08:00;;;;;;;;;;;;;;;25.07;35.29;100754.69;5074028;28;20011;-66
2022/07/30 01:10:26;;;;;;;;;;;;;;;25.07;35.56;100746.47;5073997;28;19921;-66
2022/07/30 01:12:54;;;;;;;;;;;;;;;25.10;35.39;100745.13;5073715;28;20366;-66
2022/07/30 01:15:19;;;;;;;;;;;;;;;25.06;35.57;100744.88;5073843;28;19924;-66
2022/07/30 01:17:45;;;;;;;;;;;;;;;25.07;35.61;100751.94;5072688;28;19917;-66
2022/07/30 01:20:12;;;;;;;;;;;;;;;25.07;35.59;100746.47;5072337;28;19962;-66
2022/07/30 01:22:51;;;;;;;;;;;;;;;25.08;35.49;100750.88;5073380;28;19924;-66
2022/07/30 01:25:32;;;;;;;;;;;;;;;25.09;35.64;100749.78;5071986;28;19956;-66
2022/07/30 01:28:02;;;;;;;;;;;;;;;25.10;35.64;100750.59;5090067;28;19922;-66
2022/07/30 01:30:28;;;;;;;;;;;;;;;25.09;35.47;100748.94;5093677;28;20332;-66
2022/07/30 01:32:53;;;;;;;;;;;;;;;25.09;35.68;100741.59;5092326;28;19916;-66
2022/07/30 01:35:19;;;;;;;;;;;;;;;25.07;35.54;100745.66;5093795;28;19920;-66
2022/07/30 01:37:44;;;;;;;;;;;;;;;25.05;35.70;100736.94;5092749;28;19916;-66
2022/07/30 01:40:09;;;;;;;;;;;;;;;25.07;35.75;100737.47;5093977;28;20393;-66
2022/07/30 01:42:35;;;;;;;;;;;;;;;25.07;35.86;100734.72;5092373;28;19916;-66
2022/07/30 01:45:00;;;;;;;;;;;;;;;25.07;35.81;100737.47;5092295;28;19947;-66
2022/07/30 01:47:25;;;;;;;;;;;;;;;25.08;35.83;100734.47;5092483;28;19923;-66
2022/07/30 01:49:50;;;;;;;;;;;;;;;25.07;35.63;100729.25;5092641;28;20349;-67
2022/07/30 01:52:16;;;;;;;;;;;;;;;25.07;35.74;100726.53;5092253;28;19916;-67
2022/07/30 01:54:42;;;;;;;;;;;;;;;25.07;35.75;100729.25;5093637;28;19920;-67
2022/07/30 01:57:07;;;;;;;;;;;;;;;25.08;35.67;100719.97;5093637;28;19916;-67
2022/07/30 01:59:33;;;;;;;;;;;;;;;25.08;35.72;100725.44;5092265;28;20289;-67
2022/07/30 02:01:58;;;;;;;;;;;;;;;25.06;35.96;100728.44;5093251;28;19916;-67
2022/07/30 02:04:24;;;;;;;;;;;;;;;25.06;35.88;100719.41;5093455;28;19927;-67
2022/07/30 02:06:51;;;;;;;;;;;;;;;25.08;35.90;100730.91;5093576;28;19916;-67
2022/07/30 02:09:18;;;;;;;;;;;;;;;25.06;36.05;100733.09;5092400;28;19920;-67
2022/07/30 02:14:28;;;;;;;;;;;;;;;25.06;36.18;100722.16;5093564;28;19965;-67
2022/07/30 02:16:57;;;;;;;;;;;;;;;25.06;35.94;100728.44;5093206;28;20350;-66
2022/07/30 02:19:23;;;;;;;;;;;;;;;25.08;35.81;100730.91;5096484;28;19924;-66
2022/07/30 02:21:54;;;;;;;;;;;;;;;25.06;36.06;100725.72;5096797;28;19966;-66
2022/07/30 02:24:20;;;;;;;;;;;;;;;25.06;36.03;100727.63;5095859;28;19916;-66
2022/07/30 02:26:47;;;;;;;;;;;;;;;25.07;36.11;100723.78;5089374;28;19920;-66
2022/07/30 02:29:12;;;;;;;;;;;;;;;25.06;36.30;100728.44;5075320;28;19946;-66
2022/07/30 02:31:37;;;;;;;;;;;;;;;25.05;36.30;100728.72;5075569;28;19916;-66
2022/07/30 02:34:03;;;;;;;;;;;;;;;25.05;36.11;100729.53;5075428;28;19923;-66
2022/07/30 02:36:28;;;;;;;;;;;;;;;25.07;36.02;100729.25;5076822;28;19917;-66
2022/07/30 02:38:53;;;;;;;;;;;;;;;25.07;36.09;100732.00;5075087;28;19917;-66
2022/07/30 02:41:19;;;;;;;;;;;;;;;25.07;36.21;100732.00;5075356;28;19917;-66
2022/07/30 02:43:44;;;;;;;;;;;;;;;25.07;36.13;100730.06;5075051;28;19986;-66
2022/07/30 02:46:10;;;;;;;;;;;;;;;25.05;36.17;100734.19;5075070;28;19923;-66
2022/07/30 02:48:35;;;;;;;;;;;;;;;25.06;36.25;100741.28;5075310;28;19924;-66
2022/07/30 02:51:00;;;;;;;;;;;;;;;25.05;36.21;100736.94;5076125;28;20359;-66
2022/07/30 02:53:26;;;;;;;;;;;;;;;25.05;36.35;100743.22;5075113;28;19918;-66
2022/07/30 02:55:51;;;;;;;;;;;;;;;25.05;36.32;100737.75;5074673;28;19920;-66
2022/07/30 02:58:18;;;;;;;;;;;;;;;25.06;36.21;100744.88;5076448;28;19946;-66
2022/07/30 03:00:44;;;;;;;;;;;;;;;25.04;36.49;100729.81;5075469;28;20377;-66
2022/07/30 03:03:09;;;;;;;;;;;;;;;25.05;36.28;100736.94;5076463;28;19917;-66
2022/07/30 03:05:34;;;;;;;;;;;;;;;25.05;36.44;100731.47;5074932;28;19917;-67
2022/07/30 03:08:00;;;;;;;;;;;;;;;25.07;36.19;100746.47;5075775;28;19927;-67
2022/07/30 03:10:26;;;;;;;;;;;;;;;25.05;36.21;100742.41;5075963;28;19921;-67
2022/07/30 03:12:51;;;;;;;;;;;;;;;25.05;36.48;100732.28;5075977;28;19920;-67
2022/07/30 03:15:16;;;;;;;;;;;;;;;25.06;36.25;100735.81;5074616;28;19917;-67
2022/07/30 03:17:42;;;;;;;;;;;;;;;25.05;36.46;100740.47;5075987;28;19916;-67
2022/07/30 03:20:08;;;;;;;;;;;;;;;25.06;36.57;100738.56;5057647;28;20286;-67
2022/07/30 03:22:34;;;;;;;;;;;;;;;25.07;36.30;100740.19;5075878;28;19917;-67
2022/07/30 03:25:00;;;;;;;;;;;;;;;25.06;36.58;100739.38;5075633;28;19917;-67
2022/07/30 03:27:25;;;;;;;;;;;;;;;25.05;36.56;100742.41;5087668;28;20415;-67
2022/07/30 03:29:51;;;;;;;;;;;;;;;25.04;36.56;100740.75;5094417;28;19917;-67
2022/07/30 03:32:16;;;;;;;;;;;;;;;25.05;36.58;100739.66;5094657;28;19920;-67
2022/07/30 03:34:41;;;;;;;;;;;;;;;25.05;36.34;100742.41;5095337;28;19919;-67
2022/07/30 03:37:07;;;;;;;;;;;;;;;25.06;36.64;100742.13;5094552;28;19923;-67
2022/07/30 03:39:32;;;;;;;;;;;;;;;25.03;36.56;100747.34;5095296;28;19916;-67
2022/07/30 03:41:58;;;;;;;;;;;;;;;25.05;36.59;100734.19;5094483;28;19943;-67
2022/07/30 03:44:23;;;;;;;;;;;;;;;25.06;36.64;100733.09;5095330;28;19920;-67
2022/07/30 03:46:49;;;;;;;;;;;;;;;25.08;36.46;100736.38;5095564;28;19986;-67
2022/07/30 03:49:15;;;;;;;;;;;;;;;25.06;36.79;100727.63;5095462;28;19916;-67
2022/07/30 03:51:40;;;;;;;;;;;;;;;25.06;36.56;100728.44;5095526;28;20423;-67
2022/07/30 03:54:08;;;;;;;;;;;;;;;25.06;36.43;100727.63;5095390;28;19923;-67
2022/07/30 03:56:33;;;;;;;;;;;;;;;25.08;36.61;100736.38;5095119;28;20433;-67
2022/07/30 03:58:58;;;;;;;;;;;;;;;25.06;36.77;100727.63;5093892;28;19939;-67
2022/07/30 04:01:24;;;;;;;;;;;;;;;25.03;36.64;100723.53;5095001;28;19963;-67
2022/07/30 04:03:49;;;;;;;;;;;;;;;25.05;36.69;100726.00;5094976;28;19962;-67
2022/07/30 04:06:15;;;;;;;;;;;;;;;25.07;36.71;100721.88;5095249;28;19928;-67
2022/07/30 04:08:40;;;;;;;;;;;;;;;25.08;36.74;100725.44;5095254;28;19920;-67
2022/07/30 04:11:05;;;;;;;;;;;;;;;25.04;36.86;100721.59;5095107;28;20007;-67
2022/07/30 04:13:30;;;;;;;;;;;;;;;25.05;36.89;100726.00;5094679;28;19943;-67
2022/07/30 04:16:00;;;;;;;;;;;;;;;25.06;36.61;100722.16;5094963;28;20369;-67
2022/07/30 04:18:26;;;;;;;;;;;;;;;25.04;36.75;100725.19;5094001;28;19916;-67
2022/07/30 04:20:51;;;;;;;;;;;;;;;25.04;36.88;100716.97;5093464;28;19927;-67
2022/07/30 04:23:16;;;;;;;;;;;;;;;25.04;36.79;100724.34;5094271;28;19923;-67
2022/07/30 04:25:42;;;;;;;;;;;;;;;25.04;36.66;100729.81;5094146;28;20252;-67
2022/07/30 04:28:08;;;;;;;;;;;;;;;25.04;36.48;100727.91;5077515;28;19921;-67
2022/07/30 04:30:33;;;;;;;;;;;;;;;25.07;36.48;100727.34;5074386;28;19966;-66
2022/07/30 04:32:59;;;;;;;;;;;;;;;25.06;36.49;100727.63;5074037;28;20317;-66
2022/07/30 04:35:28;;;;;;;;;;;;;;;25.07;36.74;100719.13;5074026;28;19982;-66
2022/07/30 04:37:53;;;;;;;;;;;;;;;25.06;36.75;100716.69;5074377;28;19920;-66
2022/07/30 04:40:18;;;;;;;;;;;;;;;25.06;36.49;100722.16;5073998;28;20278;-66
2022/07/30 04:42:43;;;;;;;;;;;;;;;25.05;36.42;100728.72;5073871;28;20333;-67
2022/07/30 04:45:09;;;;;;;;;;;;;;;25.06;36.63;100727.63;5074351;28;19916;-68
2022/07/30 04:47:34;;;;;;;;;;;;;;;25.07;36.63;100723.78;5074237;28;20282;-67
2022/07/30 04:49:59;;;;;;;;;;;;;;;25.05;36.38;100720.53;5074284;28;19920;-67
2022/07/30 04:52:25;;;;;;;;;;;;;;;25.05;36.28;100715.88;5074354;28;19939;-67
2022/07/30 04:54:50;;;;;;;;;;;;;;;25.04;36.52;100713.41;5073071;28;20346;-67
2022/07/30 04:57:15;;;;;;;;;;;;;;;25.04;36.26;100710.66;5073739;28;19975;-67
2022/07/30 04:59:40;;;;;;;;;;;;;;;25.04;36.49;100713.41;5073089;28;19920;-67
2022/07/30 05:02:06;;;;;;;;;;;;;;;25.02;36.26;100710.13;5073738;28;20397;-67
2022/07/30 05:04:32;;;;;;;;;;;;;;;25.00;36.07;100704.13;5073655;28;19928;-67
2022/07/30 05:06:57;;;;;;;;;;;;;;;25.03;36.03;100704.41;5073966;28;19917;-67
2022/07/30 05:09:23;;;;;;;;;;;;;;;25.02;36.02;100705.47;5074194;28;19924;-67
2022/07/30 05:11:49;;;;;;;;;;;;;;;25.04;36.01;100697.00;5072845;28;20366;-67
2022/07/30 05:14:14;;;;;;;;;;;;;;;25.03;35.89;100700.84;5073538;28;20008;-68
2022/07/30 05:16:39;;;;;;;;;;;;;;;25.01;36.04;100692.06;5073862;28;19916;-68
2022/07/30 05:19:04;;;;;;;;;;;;;;;25.02;35.92;100685.53;5074323;28;19916;-68
2022/07/30 05:21:30;;;;;;;;;;;;;;;25.04;35.91;100688.78;5073817;28;20011;-68
2022/07/30 05:23:55;;;;;;;;;;;;;;;25.04;35.88;100686.06;5074104;28;19920;-68
2022/07/30 05:26:20;;;;;;;;;;;;;;;25.03;36.03;100695.38;5075026;28;19931;-68
2022/07/30 05:28:45;;;;;;;;;;;;;;;25.02;35.83;100688.25;5094120;28;20279;-67
2022/07/30 05:31:11;;;;;;;;;;;;;;;25.05;35.53;100694.00;5093826;28;19920;-67
2022/07/30 05:33:36;;;;;;;;;;;;;;;25.02;35.85;100688.25;5093932;28;19963;-67
2022/07/30 05:36:02;;;;;;;;;;;;;;;25.03;35.75;100685.25;5093791;28;20411;-67
2022/07/30 05:38:27;;;;;;;;;;;;;;;25.02;35.46;100693.72;5093824;28;19916;-67
2022/07/30 05:40:52;;;;;;;;;;;;;;;25.05;35.53;100687.72;5093893;28;20289;-67
2022/07/30 05:43:18;;;;;;;;;;;;;;;25.06;35.27;100698.38;5094091;28;19916;-67
2022/07/30 05:45:43;;;;;;;;;;;;;;;25.02;35.65;100696.47;5093845;28;19916;-67
2022/07/30 05:48:08;;;;;;;;;;;;;;;25.02;35.62;100696.47;5093967;28;19962;-67
2022/07/30 05:50:34;;;;;;;;;;;;;;;25.03;35.31;100695.38;5094323;28;20019;-67
2022/07/30 05:52:59;;;;;;;;;;;;;;;25.02;35.50;100702.75;5094788;28;20370;-67
2022/07/30 05:55:24;;;;;;;;;;;;;;;25.06;35.19;100703.00;5098192;28;19946;-68
2022/07/30 05:57:49;;;;;;;;;;;;;;;25.05;35.11;100709.59;5098721;28;20350;-67
2022/07/30 06:00:15;;;;;;;;;;;;;;;25.02;35.13;100710.94;5098494;28;19960;-67
2022/07/30 06:02:40;;;;;;;;;;;;;;;25.05;35.22;100709.59;5097595;28;20374;-67
2022/07/30 06:05:06;;;;;;;;;;;;;;;25.06;34.93;100705.75;5097887;28;19917;-67
2022/07/30 06:07:31;;;;;;;;;;;;;;;25.04;35.20;100716.13;5098207;28;20311;-67
2022/07/30 06:10:00;;;;;;;;;;;;;;;25.03;34.85;100712.59;5097568;28;19920;-67
2022/07/30 06:12:28;;;;;;;;;;;;;;;25.06;34.89;100719.41;5097669;28;19916;-67
2022/07/30 06:14:53;;;;;;;;;;;;;;;25.03;34.84;100718.06;5097760;28;19924;-67
2022/07/30 06:17:19;;;;;;;;;;;;;;;25.02;34.95;100715.59;5098021;28;19920;-67
2022/07/30 06:19:44;;;;;;;;;;;;;;;25.06;34.70;100711.22;5097373;28;20349;-67
2022/07/30 06:22:10;;;;;;;;;;;;;;;25.11;34.79;100719.41;5097627;28;19970;-67
2022/07/30 06:24:35;;;;;;;;;;;;;;;25.05;34.87;100709.59;5097831;28;20278;-67
2022/07/30 06:27:00;;;;;;;;;;;;;;;25.09;34.66;100716.13;5092014;28;19999;-67
2022/07/30 06:29:25;;;;;;;;;;;;;;;25.06;34.69;100717.50;5077233;28;19917;-67
2022/07/30 06:31:51;;;;;;;;;;;;;;;25.03;34.60;100711.78;5077367;28;19928;-67
2022/07/30 06:34:17;;;;;;;;;;;;;;;25.06;34.76;100716.69;5077135;28;20222;-67
2022/07/30 06:36:42;;;;;;;;;;;;;;;25.04;34.66;100716.97;5077063;28;19924;-67
2022/07/30 06:39:08;;;;;;;;;;;;;;;25.03;34.85;100718.06;5077441;28;19916;-67
2022/07/30 06:41:33;;;;;;;;;;;;;;;25.02;34.75;100721.88;5076491;28;20362;-67
2022/07/30 06:43:58;;;;;;;;;;;;;;;25.07;34.56;100721.06;5076565;28;19917;-67
2022/07/30 06:46:23;;;;;;;;;;;;;;;25.06;34.60;100720.25;5076489;28;20286;-67
2022/07/30 06:48:49;;;;;;;;;;;;;;;25.05;34.39;100720.53;5076415;28;19920;-67
2022/07/30 06:51:14;;;;;;;;;;;;;;;25.05;34.28;100715.06;5076183;28;19970;-67
2022/07/30 06:53:39;;;;;;;;;;;;;;;25.06;34.29;100722.16;5076374;28;19923;-67
2022/07/30 06:56:05;;;;;;;;;;;;;;;25.08;34.45;100714.50;5076196;28;20282;-67
2022/07/30 06:58:30;;;;;;;;;;;;;;;25.07;34.39;100715.59;5076281;28;19920;-67
2022/07/30 07:00:55;;;;;;;;;;;;;;;25.08;34.37;100714.50;5075932;28;20362;-68
2022/07/30 07:03:20;;;;;;;;;;;;;;;25.08;34.38;100714.50;5075800;28;19917;-68
2022/07/30 07:05:46;;;;;;;;;;;;;;;25.05;34.36;100720.53;5076027;28;19923;-68
2022/07/30 07:08:11;;;;;;;;;;;;;;;25.05;34.23;100715.88;5075897;28;20281;-68
2022/07/30 07:10:36;;;;;;;;;;;;;;;25.02;34.18;100715.59;5075762;28;19916;-68
2022/07/30 07:13:01;;;;;;;;;;;;;;;25.04;34.15;100713.41;5076659;28;19920;-68
2022/07/30 07:15:27;;;;;;;;;;;;;;;25.03;34.13;100712.59;5075847;28;20379;-68
2022/07/30 07:17:52;;;;;;;;;;;;;;;25.05;34.26;100715.06;5074296;28;19924;-68
2022/07/30 07:20:17;;;;;;;;;;;;;;;25.05;34.13;100715.06;5075754;28;19923;-68
2022/07/30 07:22:42;;;;;;;;;;;;;;;25.05;33.86;100715.06;5075486;28;19924;-68
2022/07/30 07:25:08;;;;;;;;;;;;;;;25.06;34.06;100717.50;5075517;28;20006;-68
2022/07/30 07:27:33;;;;;;;;;;;;;;;25.07;34.12;100715.59;5085578;28;20285;-68
2022/07/30 07:29:58;;;;;;;;;;;;;;;25.06;33.81;100716.69;5095846;28;19916;-68
2022/07/30 07:32:24;;;;;;;;;;;;;;;25.06;33.99;100714.78;5095518;28;19968;-68
2022/07/30 07:34:49;;;;;;;;;;;;;;;25.04;33.85;100711.50;5095443;28;19923;-68
2022/07/30 07:37:15;;;;;;;;;;;;;;;25.09;33.87;100716.13;5095689;28;19926;-68
2022/07/30 07:39:40;;;;;;;;;;;;;;;25.08;33.75;100719.97;5095399;28;20011;-68
2022/07/30 07:42:06;;;;;;;;;;;;;;;25.07;33.39;100718.31;5095209;28;19959;-68
2022/07/30 07:44:31;;;;;;;;;;;;;;;25.07;33.75;100718.31;5095564;28;19920;-68
2022/07/30 07:46:56;;;;;;;;;;;;;;;25.07;33.54;100710.13;5095333;28;19923;-68
2022/07/30 07:49:21;;;;;;;;;;;;;;;25.03;33.38;100712.59;5095395;28;19920;-68
2022/07/30 07:51:47;;;;;;;;;;;;;;;25.06;33.47;100711.22;5095189;28;20293;-68
2022/07/30 07:54:12;;;;;;;;;;;;;;;25.06;33.55;100711.22;5095163;28;19916;-68
2022/07/30 07:56:37;;;;;;;;;;;;;;;25.04;33.21;100697.84;5095030;28;19932;-68
2022/07/30 07:59:02;;;;;;;;;;;;;;;25.04;33.42;100694.25;5095310;28;20003;-67
2022/07/30 08:01:28;;;;;;;;;;;;;;;25.03;33.57;100698.13;5095135;28;19920;-67
2022/07/30 08:03:53;;;;;;;;;;;;;;;25.05;33.31;100687.72;5095151;28;20273;-67
2022/07/30 08:06:18;;;;;;;;;;;;;;;25.03;33.53;100696.19;5094855;28;19927;-67
2022/07/30 08:08:44;;;;;;;;;;;;;;;25.04;33.47;100697.00;5093717;28;19928;-67
2022/07/30 08:11:09;;;;;;;;;;;;;;;25.05;33.46;100694.00;5094839;28;19916;-67
2022/07/30 08:13:35;;;;;;;;;;;;;;;25.01;33.51;100697.56;5094765;28;19919;-67
2022/07/30 08:16:00;;;;;;;;;;;;;;;25.04;33.32;100691.53;5093940;28;19924;-67
2022/07/30 08:18:25;;;;;;;;;;;;;;;25.06;33.31;100697.53;5094971;28;19916;-67
2022/07/30 08:20:50;;;;;;;;;;;;;;;25.08;33.24;100695.38;5094706;28;20028;-67
2022/07/30 08:23:17;;;;;;;;;;;;;;;25.09;33.50;100697.00;5094515;28;19916;-67
2022/07/30 08:25:43;;;;;;;;;;;;;;;25.08;33.38;100700.84;5094231;28;19955;-67
2022/07/30 08:28:08;;;;;;;;;;;;;;;25.07;33.44;100701.91;5080527;28;19970;-67
2022/07/30 08:30:33;;;;;;;;;;;;;;;25.07;33.20;100694.53;5074436;28;19938;-67
2022/07/30 08:32:59;;;;;;;;;;;;;;;25.05;33.49;100693.19;5074466;28;19921;-67
2022/07/30 08:35:24;;;;;;;;;;;;;;;25.04;33.55;100686.91;5073999;28;20426;-67
2022/07/30 08:37:49;;;;;;;;;;;;;;;25.06;33.53;100683.88;5074305;28;19943;-67
2022/07/30 08:40:16;;;;;;;;;;;;;;;25.04;33.32;100684.16;5074279;28;20362;-67
2022/07/30 08:42:41;;;;;;;;;;;;;;;25.05;33.40;100683.06;5074796;28;20459;-67
2022/07/30 08:45:07;;;;;;;;;;;;;;;25.05;33.56;100687.72;5074182;28;19917;-67
2022/07/30 08:47:32;;;;;;;;;;;;;;;25.06;33.53;100681.13;5074242;28;19923;-67
2022/07/30 08:50:03;;;;;;;;;;;;;;;25.02;33.50;100682.78;5074009;28;20414;-67
2022/07/30 08:52:28;;;;;;;;;;;;;;;25.04;33.42;100681.44;5074034;28;19924;-68
2022/07/30 08:54:54;;;;;;;;;;;;;;;25.06;33.66;100686.59;5073794;28;19916;-68
2022/07/30 08:57:19;;;;;;;;;;;;;;;25.07;33.54;100683.59;5074173;28;19924;-68
2022/07/30 08:59:44;;;;;;;;;;;;;;;25.05;33.72;100688.53;5072634;28;19917;-68
2022/07/30 09:02:10;;;;;;;;;;;;;;;25.02;33.81;100691.00;5074082;28;19916;-68
2022/07/30 09:04:35;;;;;;;;;;;;;;;25.07;33.86;100685.50;5073616;28;20366;-68
2022/07/30 09:07:00;;;;;;;;;;;;;;;25.10;33.94;100693.16;5074323;28;19917;-68
2022/07/30 09:09:28;;;;;;;;;;;;;;;25.13;33.77;100687.16;5073863;28;19952;-68
2022/07/30 09:11:53;;;;;;;;;;;;;;;25.11;33.63;100690.16;5074373;28;19999;-67
2022/07/30 09:14:19;;;;;;;;;;;;;;;25.10;33.92;100683.03;5073829;28;20422;-67
2022/07/30 09:16:45;;;;;;;;;;;;;;;25.10;34.07;100679.50;5073553;28;19923;-67
2022/07/30 09:19:14;;;;;;;;;;;;;;;25.09;34.20;100677.84;5073513;28;19923;-67
2022/07/30 09:21:39;;;;;;;;;;;;;;;25.04;34.30;100683.31;5073810;28;19916;-67
2022/07/30 09:24:08;;;;;;;;;;;;;;;25.04;34.35;100688.78;5073820;28;19917;-67
2022/07/30 09:26:33;;;;;;;;;;;;;;;25.07;34.38;100690.97;5073507;28;19920;-67
2022/07/30 09:29:18;;;;;;;;;;;;;;;25.05;34.23;100685.78;5073917;28;20414;-68
2022/07/30 09:31:56;;;;;;;;;;;;;;;25.02;34.53;100693.72;5057891;28;19924;-68
2022/07/30 09:34:28;;;;;;;;;;;;;;;25.03;34.73;100696.19;5057750;28;20097;-68
2022/07/30 09:36:54;;;;;;;;;;;;;;;25.08;34.82;100692.63;5057740;28;20011;-68
2022/07/30 09:39:29;;;;;;;;;;;;;;;25.06;35.22;100701.13;5057664;28;19963;-68
2022/07/30 09:41:55;;;;;;;;;;;;;;;25.03;35.51;100707.13;5057458;28;20015;-68
2022/07/30 09:44:24;;;;;;;;;;;;;;;25.06;35.53;100705.75;5057555;28;19952;-68
2022/07/30 09:46:50;;;;;;;;;;;;;;;25.08;35.53;100703.56;5057661;28;20011;-68
2022/07/30 09:49:16;;;;;;;;;;;;;;;25.10;35.93;100701.38;5057533;28;20324;-68
2022/07/30 09:51:41;;;;;;;;;;;;;;;25.10;35.91;100712.31;5057179;28;20011;-68
2022/07/30 09:54:07;;;;;;;;;;;;;;;25.08;36.01;100706.31;5057452;28;20286;-68
2022/07/30 09:56:32;;;;;;;;;;;;;;;25.11;35.81;100706.56;5057431;28;19916;-68
2022/07/30 09:58:57;;;;;;;;;;;;;;;25.10;36.06;100706.84;5057214;28;19975;-67
2022/07/30 10:01:22;;;;;;;;;;;;;;;25.10;35.93;100702.19;5056994;28;19920;-67
2022/07/30 10:03:48;;;;;;;;;;;;;;;25.12;35.99;100704.66;5057034;28;19924;-67
2022/07/30 10:06:13;;;;;;;;;;;;;;;25.10;36.11;100704.91;5072643;28;19925;-67
2022/07/30 10:08:44;;;;;;;;;;;;;;;25.07;36.11;100702.72;5057025;28;19928;-67
2022/07/30 10:11:11;;;;;;;;;;;;;;;25.07;36.08;100710.13;5056836;28;19979;-67
2022/07/30 10:13:36;;;;;;;;;;;;;;;25.07;35.94;100708.19;5057185;28;20094;-67
2022/07/30 10:16:01;;;;;;;;;;;;;;;25.10;36.33;100715.84;5056995;28;20456;-67
2022/07/30 10:18:26;;;;;;;;;;;;;;;25.04;36.55;100714.25;5057095;28;19921;-67
2022/07/30 10:20:52;;;;;;;;;;;;;;;25.10;36.89;100724.06;5057035;28;19924;-67
2022/07/30 10:23:17;;;;;;;;;;;;;;;25.12;37.00;100726.53;5072354;28;20325;-67
2022/07/30 10:25:42;;;;;;;;;;;;;;;25.13;37.00;100717.22;5056507;28;19981;-66
2022/07/30 10:28:08;;;;;;;;;;;;;;;25.10;37.44;100723.25;5056567;28;19960;-67
2022/07/30 10:30:33;;;;;;;;;;;;;;;25.13;37.52;100728.16;5056552;28;19916;-67
2022/07/30 10:32:58;;;;;;;;;;;;;;;25.16;37.55;100722.13;5056508;28;19924;-67
2022/07/30 10:35:24;;;;;;;;;;;;;;;25.15;37.74;100712.31;5072043;28;19924;-67
2022/07/30 10:37:49;;;;;;;;;;;;;;;25.16;37.86;100713.91;5056469;28;19924;-67
2022/07/30 10:40:24;;;;;;;;;;;;;;;25.17;37.97;100718.31;5056068;28;19917;-67
2022/07/30 10:42:49;;;;;;;;;;;;;;;25.14;38.29;100713.38;5072049;28;19917;-67
2022/07/30 10:45:22;;;;;;;;;;;;;;;25.17;38.06;100715.56;5056517;28;19917;-67
2022/07/30 10:47:50;;;;;;;;;;;;;;;25.18;38.45;100717.22;5056247;28;20386;-67
2022/07/30 10:50:16;;;;;;;;;;;;;;;25.17;38.66;100712.84;5056130;28;19916;-66
2022/07/30 10:52:52;;;;;;;;;;;;;;;25.17;38.86;100717.50;5056614;28;19916;-66
2022/07/30 10:55:18;;;;;;;;;;;;;;;25.12;39.21;100723.78;5056150;28;19916;-68
2022/07/30 10:58:21;;;;;;;;;;;;;;;25.12;39.30;100715.59;5056445;28;19931;-68
2022/07/30 11:00:57;;;;;;;;;;;;;;;25.10;39.54;100723.25;5034174;28;20472;-67
2022/07/30 11:03:22;;;;;;;;;;;;;;;25.12;39.39;100730.06;5033937;28;19994;-67
2022/07/30 11:05:48;;;;;;;;;;;;;;;25.13;39.49;100728.16;5034241;28;19952;-67
2022/07/30 11:08:29;;;;;;;;;;;;;;;25.14;39.62;100724.31;5043769;28;19972;-67
2022/07/30 11:10:55;;;;;;;;;;;;;;;25.13;39.49;100728.16;5025812;28;19924;-67
2022/07/30 11:13:39;;;;;;;;;;;;;;;25.10;39.71;100726.78;5041321;28;19917;-67
2022/07/30 11:16:04;;;;;;;;;;;;;;;25.14;39.78;100723.50;5043117;28;19917;-67
2022/07/30 11:18:29;;;;;;;;;;;;;;;25.15;39.56;100719.66;5026986;28;20032;-67
2022/07/30 11:21:14;;;;;;;;;;;;;;;25.11;39.85;100719.41;5040354;28;19940;-67
2022/07/30 11:23:40;;;;;;;;;;;;;;;25.11;39.98;100724.88;5035340;28;19917;-67
2022/07/30 11:26:05;;;;;;;;;;;;;;;25.14;39.64;100718.84;5034258;28;20000;-67
2022/07/30 11:28:34;;;;;;;;;;;;;;;25.19;39.45;100718.84;5048429;28;20367;-67
2022/07/30 11:30:59;;;;;;;;;;;;;;;25.14;39.90;100723.50;5065393;28;19993;-67
2022/07/30 11:33:25;;;;;;;;;;;;;;;25.16;39.98;100727.59;5094609;28;20358;-67
2022/07/30 11:36:10;;;;;;;;;;;;;;;25.14;39.95;100724.31;5095519;28;19956;-67
2022/07/30 11:38:51;;;;;;;;;;;;;;;25.17;39.88;100728.44;5095270;28;19923;-67
2022/07/30 11:41:16;;;;;;;;;;;;;;;25.14;40.03;100724.31;5096110;28;19916;-67
2022/07/30 11:43:42;;;;;;;;;;;;;;;25.12;39.97;100732.00;5095423;28;19916;-67
2022/07/30 11:46:14;;;;;;;;;;;;;;;25.15;39.85;100736.06;5095740;28;19959;-67
2022/07/30 11:48:40;;;;;;;;;;;;;;;25.15;39.89;100728.72;5095326;28;19989;-67
2022/07/30 11:51:05;;;;;;;;;;;;;;;25.12;39.91;100726.53;5094283;28;19923;-67
2022/07/30 11:53:31;;;;;;;;;;;;;;;25.11;39.65;100727.59;5095420;28;19917;-67
2022/07/30 11:55:57;;;;;;;;;;;;;;;25.06;39.76;100713.94;5095385;28;19975;-67
2022/07/30 11:58:25;;;;;;;;;;;;;;;25.11;39.78;100719.41;5095142;28;19920;-67
2022/07/30 12:00:50;;;;;;;;;;;;;;;25.11;39.50;100725.72;5095334;28;19916;-67
2022/07/30 12:03:16;;;;;;;;;;;;;;;25.07;39.78;100718.31;5095520;28;19923;-67
2022/07/30 12:05:42;;;;;;;;;;;;;;;25.09;39.50;100716.13;5095328;28;19920;-67
2022/07/30 12:08:07;;;;;;;;;;;;;;;25.12;39.58;100721.06;5095326;28;19927;-67
2022/07/30 12:10:34;;;;;;;;;;;;;;;25.14;39.27;100718.03;5095160;28;20281;-67
2022/07/30 12:13:26;;;;;;;;;;;;;;;25.12;39.46;100721.06;5094951;28;19923;-67
2022/07/30 12:15:52;;;;;;;;;;;;;;;25.08;39.50;100715.31;5092596;28;19916;-67
2022/07/30 12:18:27;;;;;;;;;;;;;;;25.10;39.52;100718.59;5095004;28;19916;-67
2022/07/30 12:20:55;;;;;;;;;;;;;;;25.07;39.29;100721.06;5095111;28;19942;-67
2022/07/30 12:23:21;;;;;;;;;;;;;;;25.09;39.37;100716.13;5093950;28;19916;-67
2022/07/30 12:25:46;;;;;;;;;;;;;;;25.07;39.10;100713.66;5094486;28;20393;-67
2022/07/30 12:28:17;;;;;;;;;;;;;;;25.14;39.05;100718.03;5083600;28;19924;-67
2022/07/30 12:30:43;;;;;;;;;;;;;;;25.11;39.24;100711.19;5073455;28;20020;-67
2022/07/30 12:33:08;;;;;;;;;;;;;;;25.09;39.43;100710.66;5074572;28;19956;-67